Terminal Aerodrome Forecast
Issued by NWS

Home | Current Version | Previous Version | Text Only | Print | Product List | Glossary On
Versions: 1 2 3 4 5 6 7 8 9 10 11 12 13
000
FTUS43 KABR 302322
TAFATY
TAF
KATY 302322Z 0100/0124 06015G22KT P6SM -RA OVC070
     FM010100 04016G24KT P6SM -RA OVC050
     FM010600 02017G24KT P6SM RASN OVC040
     FM010900 01020G28KT P6SM -SN OVC045
     FM011000 01019G27KT 2SM -SN OVC030
     FM011200 36017G24KT 4SM -SN OVC015
     FM011300 36017G24KT 5SM -RASN OVC015
     FM011500 36017G25KT P6SM VCSH OVC020
     FM011900 35019G28KT P6SM BKN045=

USA.gov is the U.S. government's official web portal to all federal, state and local government web resources and services.